Timeline UpdatesTrip UpdatesNews PostsPvt PostsTravel TipsAdmin PostsConv PostsFollowed PostsChat RequestsBlog PostsPNR Posts

Disclaimer
Search
 
 
Tue Jul 29, 2014 08:04:48 ISTHomeTrainsΣChainsAtlasPNRForumGalleryNewsFAQTripsMembersLoginFeedback
No Recent News for this Train
Other Trains in the News **new
Latest...
One Sleeper and unreserved coach for Mumbai is attached from Nandurbar. These coaches are attached to 59442 Ahmedabad Mumbai passenger at Surat.
Mon Apr 18, 2011 (09:18PM)
⇐ Return Journey: Train# 59441-Slip

59076-Slip/Bhusaval -Mumbai Passenger Slip(Via Surat)

Jul 01 2013 (11:06PM)
Change Departure Station:
Change Arrival Station:
Post a Train Travel TipPost a Train Travel Tip **new
Post a Comment/Question/Picture/VideoPost a Comment/Question/Picture/Video
Pantry/Catering
???
Loco/Rake Reversals
ST/Surat (4);
RSA - Rake Sharing
Rake/Coach Composition
Loco
News    PNR    Forum    Time-Table    Availability    Fare Chart    Map    Arr/Dep History    Trips    Gallery    ΣChains    X/O    Timeline    
Travel Time: 3h 35m    14 halts    Distance: 115 km    Avg Speed: 32 km/hr
Type: Passenger
Zone: WR/Western
Departs @ 14:30 (Avg 5m late)
Platform# ???
SMTWTFS
Nandurbar/NDB 
Arrives @ 18:05 (Avg 4m late)
Platform# 1
SMTWTFS
Madhi/MID 

14 halts. 15 intermediate Stations between Nandurbar and Madhi

Show ALL intermediate Stations  Show Old Time-Table

#CodeStation NameX/OArrivesAvgDepartsAvgHaltPFDay#KmSpeedElevZoneAddress
1BSLBhusaval Junction (8)  -08:45+8--1-174.158208mCRBhusaval 425201, Maharashtra
2BDIBhadli (2)  08:58+1109:00+112m--1-161.530211mCRBhadli, Maharashtra
3JLJalgaon Junction (4)  09:23+409:25+72m21-150.037213mCRJalgaon 425001, Maharashtra
4PLDPaldhi (2)  09:43+1309:45+172m--1-138.953208mWRPaldhi, Maharashtra
5CHLKChavalkhedeX  09:58+1710:00+202m--1-127.427196mWRState Highway 185, Maharashtra
6DXGDharangaon (2)  10:16+1710:18+182m--1-120.257217mWRDharangaon, Maharashtra
7BHNEBhone (2)  10:26-10:28-2m--1-112.650196mWRState Highway 185, Maharashtra
8TKHETakarkhede (1)  10:35+1810:37+192m11-106.843203mWRState Highway 6, Maharashtra
9ANAmalner (1)  10:53+1810:55+182m11-95.340188mWRAmalner, Maharashtra
10BRTKBhortex  11:07+1911:09+192m--1-87.353180mWRVadhoda, Maharashtra
11PDPPadse  11:18+1911:20+192m--1-79.448181mWRDhule, Maharashtra
12BEWBetavad (1)  11:27-11:29-2m11-73.858178mWRState Highway 6, Maharashtra
13NDNNardana (1)  11:36+1811:38+192m11-67.042184mWRNardana, Maharashtra
14HOLHol (1)  11:45+2011:47+202m11-62.163185mWRState Highway 6, Maharashtra
15SNKSindkheda (1)X  11:55+2211:57+232m11-53.843178mWRState Highway 11, Maharashtra
16SNSLSonshelu (1)  12:06-12:08-2m11-47.348185mWRMSH1, Maharashtra
17VKHVikhran (1)X  12:14+1912:16+202m11-42.533176mWRMSH1, Maharashtra
18DDEDondaicha (2)  12:31+1512:33+172m11-34.455163mWRDondaicha, Maharashtra
19RNLRanala (1)X  12:46+1612:48+212m11-22.433164mWRState Highway 6, Maharashtra
20TISITisi (1)X  13:05+1413:07+192m11-12.920185mWRState Highway 7, Maharashtra
21NDB»Nandurbar (3)»X  13:45+914:30+545m--10.060203mWRNandurbar, Maharashtra
22DWDDhekwad (1)  14:39+914:41+102m119.048209mWRState Highway 5, Maharashtra
23KBHKhandbara (1)X  14:58+1815:00+222m1122.653198mWRKhandbara, Maharashtra
24KHTGKhatgaon (1)  15:10+2515:12+252m1131.453178mWRState Highway 5, Maharashtra
25CPDChinchpada (1)  15:23+2415:25+252m1141.248178mWRGangapur, Maharashtra
26KFFKolda (1)  15:33+2615:35+262m1147.539160mWRGangapur, Maharashtra
27NWUNavapur (2)  15:51+2415:53+242m--157.955124mWRNavapur, Gujarat
28BBAIBhadbhunja (1)  16:05+2516:07+292m1169.025126mWRGujarat 394375 ?, Gujarat
29LKKDLakkad Kot (1)  16:19+2716:21+262m1173.936122mWRGujarat 394375 ?, Gujarat
30USDUkai Songadh (2)  16:33+2616:35+262m1181.239139mWRSongadh, Gujarat
31DSDDosvada (1)  16:42-16:44-2m1185.817121mWRNational Highway 6, Gujarat
32KKRDKikakui Road (1)O  16:53+2516:55+242m1188.316114mWRGujarat 394650 ?, Gujarat
33VYAVyara (2)  17:38-217:40+12m1199.94390mWRVyara, Gujarat
34LTVLotarva (1)  17:49+417:51+32m11106.34657mWRSankr Main Rd, Gujarat
35KRAIKaher (1)X  17:55-17:57-2m11109.44055mWRKaher, Gujarat
36MID•Madhi (1)•  18:05+418:07+122m11114.83245mWRMadhi, Gujarat
37MGRLMangrolla (1)  18:17-18:19-2m11120.13336mWRPipariya, Gujarat
38TBVTimbarva (1)  18:24+718:26+92m11122.83435mWRTimberva, Gujarat
39BIYBardoli (2)  18:38+718:40+102m--1129.62135mWRNear Bardoli Sugar Factory Bardoli, Gujarat
40GGARGangadhara (1)X  18:58+419:00+82m11135.82027mWRKareli, Gujarat
41CHMChalthan (1)  19:29-119:31+12m11145.35023mWRKadodra, Gujarat
42NOLNiyol (1)  19:37-19:39-2m11150.32818mWRSurat, Gujarat
43UDNUdhna Junction (3)XO  19:53-19:55-2m21156.81616mWRUdhna 394210, Gujarat
44STSurat (4)XOO20:10+321:30+2:3080m41160.83819mWRSurat 395001, Gujarat
45BHETBhestan (2)X  21:44-21:46-2m21169.64913mWRSurat, Gujarat
46SCHSachin (3)XO  21:53-21:55-2m--1175.36611mWRKansad Road Sachin, Gujarat
47MRLMaroli (3)  22:01-22:03-2m--1182.06315mWRMaroli, Gujarat
48NVSNavsari (3)X  22:11-22:13-2m--1190.44614mWRNavsari, Gujarat
49VDHVedchha (3)XO  22:24-22:26-2m--1198.95113mWRNavsari, Gujarat
50ACLAncheli (2)X  22:30-22:32-2m--1202.24620mWRNavsari, Gujarat
51AMLAmalsad (3)  22:37-22:39-2m--1206.05612mWRAmalsad, Gujarat
52BIMBilimora Junction (4)O  22:45-22:47-2m--1211.66811mWRBilimora, Gujarat
53DGIDungri (3)X  22:55-22:57-2m--1220.62320mWRNH 8, Gujarat
54BLValsad (3)X  23:20-23:30-10m31229.56415mWRValsad, Gujarat
55PADPardi (3)X  23:40-23:42-2m--1240.26019mWRValsad, Gujarat
56UVDUdvada (3)  23:48-23:50-2m--1246.25218mWRUdvada, Gujarat
57VAPIVapi (3)XO  00:01-00:02-1m--2255.84827mWRVapi, Gujarat
58KEBKarambeli (2)X  00:10-00:11-1m--2262.24829mWRNational Highway 8, Gujarat
59BLDBhilad (3)X  00:17-00:19-2m--2267.16933mWRBhilad, Gujarat
60SJNSanjan (3)X  00:29-00:31-2m--2278.65422mWRSanjan, Gujarat
61UBRUmbargam Road (3)X  00:37-00:39-2m--2284.06130mWRUmbergaon, Gujarat
62GVDGholvad (4)XO  00:48-00:50-2m--2293.14214mWRGholvad, Maharashtra
63DRDDahanu Road (5)XO  01:06-01:08-2m--2304.35712mWRDahanu, Maharashtra
64VGNVangaon (3)XO  01:21-01:23-2m--2316.66311mWRThane, Maharashtra
65BORBoisar (3)X  01:32-01:34-2m32326.04817mWRBoisar Tel.no-02525-266626, Maharashtra
66PLGPalghar (3)  01:48-01:50-2m--2337.34619mWRPalghar, Maharashtra
67KLVKelve Road (3)O  02:01-02:03-2m--2345.74310mWRThane, Maharashtra
68SAHSaphale (2)O  02:12-02:14-2m22352.1348mWRThane, Maharashtra
69VRVirar (8)  02:43-02:45-2m--2368.4286mWRThane, Maharashtra
70BSRVasai Road (7)  03:03-03:05-2m52376.9587mWRThane-401202, Maharashtra
71BVIMumbai Borivali (8)  03:23-03:25-2m52394.33719mWRMumbai - 400092, Maharashtra
72DDRMumbai Dadar Western (6)  04:03-04:05-2m52418.0126mWRMumbai, Maharashtra
73BCTMumbai Central (9)  04:35--52423.9-3mWRMumbai 400008, Maharashtra
Scroll to Top
Scroll to Bottom